sensor_id;sensor_type;location;lat;lon;timestamp;P1;durP1;ratioP1;P2;durP2;ratioP2
14316;SDS011;7242;50.858;6.586;2022-12-24T00:00:41;15.77;;;4.40;;
14316;SDS011;7242;50.858;6.586;2022-12-24T00:03:42;16.30;;;3.53;;
14316;SDS011;7242;50.858;6.586;2022-12-24T00:06:44;22.73;;;6.00;;
14316;SDS011;7242;50.858;6.586;2022-12-24T00:09:46;21.13;;;4.73;;
14316;SDS011;7242;50.858;6.586;2022-12-24T00:12:47;18.73;;;4.03;;
14316;SDS011;7242;50.858;6.586;2022-12-24T00:15:48;18.50;;;4.90;;
14316;SDS011;7242;50.858;6.586;2022-12-24T00:18:50;18.20;;;4.20;;
14316;SDS011;7242;50.858;6.586;2022-12-24T00:21:51;21.53;;;4.70;;
14316;SDS011;7242;50.858;6.586;2022-12-24T00:24:52;16.67;;;3.90;;
14316;SDS011;7242;50.858;6.586;2022-12-24T00:27:53;17.27;;;3.73;;
14316;SDS011;7242;50.858;6.586;2022-12-24T00:30:55;16.37;;;3.97;;
14316;SDS011;7242;50.858;6.586;2022-12-24T00:33:56;15.20;;;3.60;;
14316;SDS011;7242;50.858;6.586;2022-12-24T00:36:57;17.87;;;3.67;;
14316;SDS011;7242;50.858;6.586;2022-12-24T00:39:58;18.17;;;3.70;;
14316;SDS011;7242;50.858;6.586;2022-12-24T00:43:00;14.63;;;3.60;;
14316;SDS011;7242;50.858;6.586;2022-12-24T00:46:01;19.67;;;4.37;;
14316;SDS011;7242;50.858;6.586;2022-12-24T00:49:02;16.20;;;3.60;;
14316;SDS011;7242;50.858;6.586;2022-12-24T00:52:04;18.57;;;3.87;;
14316;SDS011;7242;50.858;6.586;2022-12-24T00:55:05;18.47;;;3.70;;
14316;SDS011;7242;50.858;6.586;2022-12-24T00:58:07;20.13;;;4.17;;
14316;SDS011;7242;50.858;6.586;2022-12-24T01:01:08;20.60;;;4.20;;
14316;SDS011;7242;50.858;6.586;2022-12-24T01:04:09;17.03;;;3.90;;
14316;SDS011;7242;50.858;6.586;2022-12-24T01:07:29;16.70;;;3.67;;
14316;SDS011;7242;50.858;6.586;2022-12-24T01:10:31;19.27;;;3.83;;
14316;SDS011;7242;50.858;6.586;2022-12-24T01:13:32;18.13;;;3.93;;
14316;SDS011;7242;50.858;6.586;2022-12-24T01:16:33;21.47;;;4.57;;
14316;SDS011;7242;50.858;6.586;2022-12-24T01:19:34;16.33;;;3.53;;
14316;SDS011;7242;50.858;6.586;2022-12-24T01:22:35;18.67;;;3.70;;
14316;SDS011;7242;50.858;6.586;2022-12-24T01:25:39;18.77;;;3.60;;
14316;SDS011;7242;50.858;6.586;2022-12-24T01:28:40;18.13;;;3.70;;
14316;SDS011;7242;50.858;6.586;2022-12-24T01:31:42;18.77;;;4.30;;
14316;SDS011;7242;50.858;6.586;2022-12-24T01:34:43;18.50;;;3.90;;
14316;SDS011;7242;50.858;6.586;2022-12-24T01:37:44;23.73;;;4.40;;
14316;SDS011;7242;50.858;6.586;2022-12-24T01:40:46;21.03;;;3.80;;
14316;SDS011;7242;50.858;6.586;2022-12-24T01:47:20;18.13;;;3.70;;
14316;SDS011;7242;50.858;6.586;2022-12-24T01:50:25;14.27;;;3.47;;
14316;SDS011;7242;50.858;6.586;2022-12-24T01:53:26;25.67;;;4.43;;
14316;SDS011;7242;50.858;6.586;2022-12-24T01:56:27;18.57;;;4.03;;
14316;SDS011;7242;50.858;6.586;2022-12-24T01:59:33;22.83;;;4.40;;
14316;SDS011;7242;50.858;6.586;2022-12-24T02:02:36;21.00;;;4.27;;
14316;SDS011;7242;50.858;6.586;2022-12-24T02:05:47;18.80;;;3.97;;
14316;SDS011;7242;50.858;6.586;2022-12-24T02:08:53;16.70;;;3.70;;
14316;SDS011;7242;50.858;6.586;2022-12-24T02:11:55;23.53;;;5.03;;
14316;SDS011;7242;50.858;6.586;2022-12-24T02:14:56;20.23;;;4.27;;
14316;SDS011;7242;50.858;6.586;2022-12-24T02:18:03;16.97;;;3.90;;
14316;SDS011;7242;50.858;6.586;2022-12-24T02:27:56;18.70;;;3.97;;
14316;SDS011;7242;50.858;6.586;2022-12-24T02:34:29;20.83;;;4.20;;
14316;SDS011;7242;50.858;6.586;2022-12-24T02:37:57;19.10;;;3.77;;
14316;SDS011;7242;50.858;6.586;2022-12-24T02:41:06;14.10;;;3.40;;
14316;SDS011;7242;50.858;6.586;2022-12-24T02:44:07;15.30;;;3.80;;
14316;SDS011;7242;50.858;6.586;2022-12-24T02:47:09;15.27;;;3.67;;
14316;SDS011;7242;50.858;6.586;2022-12-24T02:50:11;14.53;;;3.10;;
14316;SDS011;7242;50.858;6.586;2022-12-24T02:53:13;10.77;;;2.93;;
14316;SDS011;7242;50.858;6.586;2022-12-24T02:56:26;13.77;;;3.13;;
14316;SDS011;7242;50.858;6.586;2022-12-24T02:59:50;12.97;;;3.27;;
14316;SDS011;7242;50.858;6.586;2022-12-24T03:03:59;12.23;;;3.17;;
14316;SDS011;7242;50.858;6.586;2022-12-24T03:06:31;8.47;;;2.50;;
14316;SDS011;7242;50.858;6.586;2022-12-24T03:09:39;12.23;;;2.70;;
14316;SDS011;7242;50.858;6.586;2022-12-24T03:13:02;8.80;;;2.40;;
14316;SDS011;7242;50.858;6.586;2022-12-24T03:16:08;10.73;;;2.70;;
14316;SDS011;7242;50.858;6.586;2022-12-24T03:19:10;10.10;;;2.67;;
14316;SDS011;7242;50.858;6.586;2022-12-24T03:22:11;12.97;;;2.67;;
14316;SDS011;7242;50.858;6.586;2022-12-24T03:25:13;9.93;;;2.53;;
14316;SDS011;7242;50.858;6.586;2022-12-24T03:28:15;9.67;;;2.70;;
14316;SDS011;7242;50.858;6.586;2022-12-24T03:31:18;9.87;;;2.47;;
14316;SDS011;7242;50.858;6.586;2022-12-24T03:34:20;11.93;;;3.03;;
14316;SDS011;7242;50.858;6.586;2022-12-24T03:37:21;8.43;;;2.50;;
14316;SDS011;7242;50.858;6.586;2022-12-24T03:40:22;11.77;;;2.40;;
14316;SDS011;7242;50.858;6.586;2022-12-24T03:43:24;9.60;;;1.70;;
14316;SDS011;7242;50.858;6.586;2022-12-24T03:46:25;6.00;;;1.87;;
14316;SDS011;7242;50.858;6.586;2022-12-24T03:49:26;5.67;;;1.60;;
14316;SDS011;7242;50.858;6.586;2022-12-24T03:52:27;3.20;;;1.20;;
14316;SDS011;7242;50.858;6.586;2022-12-24T03:55:29;4.03;;;1.13;;
14316;SDS011;7242;50.858;6.586;2022-12-24T03:58:30;5.43;;;1.47;;
14316;SDS011;7242;50.858;6.586;2022-12-24T04:01:31;4.03;;;1.20;;
14316;SDS011;7242;50.858;6.586;2022-12-24T04:04:32;4.67;;;1.33;;
14316;SDS011;7242;50.858;6.586;2022-12-24T04:07:35;5.73;;;1.27;;
14316;SDS011;7242;50.858;6.586;2022-12-24T04:10:37;7.87;;;2.03;;
14316;SDS011;7242;50.858;6.586;2022-12-24T04:13:38;6.70;;;1.63;;
14316;SDS011;7242;50.858;6.586;2022-12-24T04:16:39;5.37;;;1.77;;
14316;SDS011;7242;50.858;6.586;2022-12-24T04:19:40;5.90;;;1.50;;
14316;SDS011;7242;50.858;6.586;2022-12-24T04:22:41;5.83;;;1.60;;
14316;SDS011;7242;50.858;6.586;2022-12-24T04:25:43;5.70;;;1.43;;
14316;SDS011;7242;50.858;6.586;2022-12-24T04:28:44;7.50;;;1.53;;
14316;SDS011;7242;50.858;6.586;2022-12-24T04:31:45;7.57;;;1.90;;
14316;SDS011;7242;50.858;6.586;2022-12-24T04:34:46;5.90;;;1.67;;
14316;SDS011;7242;50.858;6.586;2022-12-24T04:37:47;3.93;;;1.57;;
14316;SDS011;7242;50.858;6.586;2022-12-24T04:40:56;3.03;;;1.30;;
14316;SDS011;7242;50.858;6.586;2022-12-24T04:43:59;5.70;;;1.50;;
14316;SDS011;7242;50.858;6.586;2022-12-24T04:47:01;6.13;;;1.70;;
14316;SDS011;7242;50.858;6.586;2022-12-24T04:50:02;5.37;;;1.63;;
14316;SDS011;7242;50.858;6.586;2022-12-24T04:53:03;9.13;;;2.00;;
14316;SDS011;7242;50.858;6.586;2022-12-24T04:56:09;8.03;;;2.37;;
14316;SDS011;7242;50.858;6.586;2022-12-24T04:59:12;9.73;;;2.87;;
14316;SDS011;7242;50.858;6.586;2022-12-24T05:02:13;14.63;;;3.13;;
14316;SDS011;7242;50.858;6.586;2022-12-24T05:05:14;14.27;;;3.43;;
14316;SDS011;7242;50.858;6.586;2022-12-24T05:08:15;15.93;;;3.67;;
14316;SDS011;7242;50.858;6.586;2022-12-24T05:11:17;12.53;;;3.90;;
14316;SDS011;7242;50.858;6.586;2022-12-24T05:14:18;13.93;;;3.50;;
14316;SDS011;7242;50.858;6.586;2022-12-24T05:17:19;12.13;;;3.47;;
14316;SDS011;7242;50.858;6.586;2022-12-24T05:20:20;18.10;;;4.30;;
14316;SDS011;7242;50.858;6.586;2022-12-24T05:23:22;16.30;;;3.97;;
14316;SDS011;7242;50.858;6.586;2022-12-24T05:26:47;11.40;;;3.10;;
14316;SDS011;7242;50.858;6.586;2022-12-24T05:29:50;10.70;;;3.03;;
14316;SDS011;7242;50.858;6.586;2022-12-24T05:32:51;17.53;;;4.30;;
14316;SDS011;7242;50.858;6.586;2022-12-24T05:35:52;16.70;;;3.57;;
14316;SDS011;7242;50.858;6.586;2022-12-24T05:38:53;18.23;;;3.77;;
14316;SDS011;7242;50.858;6.586;2022-12-24T05:41:55;15.67;;;3.40;;
14316;SDS011;7242;50.858;6.586;2022-12-24T05:44:56;18.60;;;3.83;;
14316;SDS011;7242;50.858;6.586;2022-12-24T05:47:57;17.80;;;3.83;;
14316;SDS011;7242;50.858;6.586;2022-12-24T05:51:02;15.37;;;3.77;;
14316;SDS011;7242;50.858;6.586;2022-12-24T05:54:05;20.53;;;4.03;;
14316;SDS011;7242;50.858;6.586;2022-12-24T05:57:06;23.33;;;4.30;;
14316;SDS011;7242;50.858;6.586;2022-12-24T06:00:08;16.73;;;3.50;;
14316;SDS011;7242;50.858;6.586;2022-12-24T06:03:12;13.53;;;4.60;;
14316;SDS011;7242;50.858;6.586;2022-12-24T06:06:14;24.57;;;4.23;;
14316;SDS011;7242;50.858;6.586;2022-12-24T06:09:18;23.87;;;5.20;;
14316;SDS011;7242;50.858;6.586;2022-12-24T06:16:23;18.53;;;4.20;;
14316;SDS011;7242;50.858;6.586;2022-12-24T06:19:25;13.07;;;3.87;;
14316;SDS011;7242;50.858;6.586;2022-12-24T06:22:26;18.07;;;4.37;;
14316;SDS011;7242;50.858;6.586;2022-12-24T06:25:27;20.73;;;4.63;;
14316;SDS011;7242;50.858;6.586;2022-12-24T06:28:29;16.60;;;4.27;;
14316;SDS011;7242;50.858;6.586;2022-12-24T06:31:30;24.03;;;4.50;;
14316;SDS011;7242;50.858;6.586;2022-12-24T06:34:31;20.27;;;5.03;;
14316;SDS011;7242;50.858;6.586;2022-12-24T06:37:33;19.83;;;5.00;;
14316;SDS011;7242;50.858;6.586;2022-12-24T06:40:34;17.60;;;4.67;;
14316;SDS011;7242;50.858;6.586;2022-12-24T06:47:17;14.70;;;3.90;;
14316;SDS011;7242;50.858;6.586;2022-12-24T06:50:18;17.37;;;4.27;;
14316;SDS011;7242;50.858;6.586;2022-12-24T06:53:20;19.73;;;4.00;;
14316;SDS011;7242;50.858;6.586;2022-12-24T06:56:22;16.93;;;4.37;;
14316;SDS011;7242;50.858;6.586;2022-12-24T06:59:23;15.33;;;4.17;;
14316;SDS011;7242;50.858;6.586;2022-12-24T07:02:24;17.17;;;4.30;;
14316;SDS011;7242;50.858;6.586;2022-12-24T07:05:25;22.53;;;4.37;;
14316;SDS011;7242;50.858;6.586;2022-12-24T07:08:26;20.73;;;4.50;;
14316;SDS011;7242;50.858;6.586;2022-12-24T07:11:27;19.03;;;4.47;;
14316;SDS011;7242;50.858;6.586;2022-12-24T07:14:29;18.87;;;4.07;;
14316;SDS011;7242;50.858;6.586;2022-12-24T07:17:30;17.60;;;3.90;;
14316;SDS011;7242;50.858;6.586;2022-12-24T07:20:31;22.37;;;4.70;;
14316;SDS011;7242;50.858;6.586;2022-12-24T07:23:33;17.63;;;4.73;;
14316;SDS011;7242;50.858;6.586;2022-12-24T07:26:34;21.93;;;5.10;;
14316;SDS011;7242;50.858;6.586;2022-12-24T07:29:35;17.13;;;4.27;;
14316;SDS011;7242;50.858;6.586;2022-12-24T07:32:37;20.00;;;4.50;;
14316;SDS011;7242;50.858;6.586;2022-12-24T07:35:38;19.33;;;4.90;;
14316;SDS011;7242;50.858;6.586;2022-12-24T07:38:39;16.30;;;4.30;;
14316;SDS011;7242;50.858;6.586;2022-12-24T07:41:40;20.80;;;4.53;;
14316;SDS011;7242;50.858;6.586;2022-12-24T07:44:42;20.63;;;4.70;;
14316;SDS011;7242;50.858;6.586;2022-12-24T07:47:43;21.13;;;4.20;;
14316;SDS011;7242;50.858;6.586;2022-12-24T07:50:45;23.50;;;4.80;;
14316;SDS011;7242;50.858;6.586;2022-12-24T07:53:46;21.97;;;5.77;;
14316;SDS011;7242;50.858;6.586;2022-12-24T07:56:47;22.90;;;4.77;;
14316;SDS011;7242;50.858;6.586;2022-12-24T07:59:48;18.70;;;4.57;;
14316;SDS011;7242;50.858;6.586;2022-12-24T08:02:49;19.03;;;4.33;;
14316;SDS011;7242;50.858;6.586;2022-12-24T08:05:51;26.77;;;5.27;;
14316;SDS011;7242;50.858;6.586;2022-12-24T08:08:52;21.70;;;5.03;;
14316;SDS011;7242;50.858;6.586;2022-12-24T08:11:53;20.77;;;5.30;;
14316;SDS011;7242;50.858;6.586;2022-12-24T08:14:54;22.10;;;4.27;;
14316;SDS011;7242;50.858;6.586;2022-12-24T08:17:56;28.03;;;5.20;;
14316;SDS011;7242;50.858;6.586;2022-12-24T08:20:57;15.73;;;3.90;;
14316;SDS011;7242;50.858;6.586;2022-12-24T08:23:58;25.10;;;4.50;;
14316;SDS011;7242;50.858;6.586;2022-12-24T08:26:59;26.80;;;5.30;;
14316;SDS011;7242;50.858;6.586;2022-12-24T08:30:01;24.77;;;5.00;;
14316;SDS011;7242;50.858;6.586;2022-12-24T08:33:02;18.87;;;4.97;;
14316;SDS011;7242;50.858;6.586;2022-12-24T08:36:04;24.47;;;5.30;;
14316;SDS011;7242;50.858;6.586;2022-12-24T08:39:05;21.07;;;4.53;;
14316;SDS011;7242;50.858;6.586;2022-12-24T08:42:08;20.10;;;4.23;;
14316;SDS011;7242;50.858;6.586;2022-12-24T08:45:09;18.47;;;4.47;;
14316;SDS011;7242;50.858;6.586;2022-12-24T08:48:10;18.87;;;4.63;;
14316;SDS011;7242;50.858;6.586;2022-12-24T08:51:12;22.83;;;5.63;;
14316;SDS011;7242;50.858;6.586;2022-12-24T08:54:13;20.30;;;4.77;;
14316;SDS011;7242;50.858;6.586;2022-12-24T08:57:14;18.30;;;4.63;;
14316;SDS011;7242;50.858;6.586;2022-12-24T09:00:16;22.27;;;4.97;;
14316;SDS011;7242;50.858;6.586;2022-12-24T09:03:17;25.30;;;5.90;;
14316;SDS011;7242;50.858;6.586;2022-12-24T09:06:18;23.97;;;5.30;;
14316;SDS011;7242;50.858;6.586;2022-12-24T09:09:19;24.00;;;4.90;;
14316;SDS011;7242;50.858;6.586;2022-12-24T09:12:20;20.00;;;4.93;;
14316;SDS011;7242;50.858;6.586;2022-12-24T09:15:22;20.30;;;5.80;;
14316;SDS011;7242;50.858;6.586;2022-12-24T09:18:23;20.90;;;4.80;;
14316;SDS011;7242;50.858;6.586;2022-12-24T09:21:24;22.33;;;6.57;;
14316;SDS011;7242;50.858;6.586;2022-12-24T09:24:25;22.60;;;6.33;;
14316;SDS011;7242;50.858;6.586;2022-12-24T09:27:27;25.33;;;5.93;;
14316;SDS011;7242;50.858;6.586;2022-12-24T09:30:30;20.63;;;4.60;;
14316;SDS011;7242;50.858;6.586;2022-12-24T09:33:35;26.40;;;5.73;;
14316;SDS011;7242;50.858;6.586;2022-12-24T09:36:38;23.80;;;5.33;;
14316;SDS011;7242;50.858;6.586;2022-12-24T09:39:39;30.63;;;6.83;;
14316;SDS011;7242;50.858;6.586;2022-12-24T09:42:44;22.73;;;5.37;;
14316;SDS011;7242;50.858;6.586;2022-12-24T09:45:52;21.97;;;6.73;;
14316;SDS011;7242;50.858;6.586;2022-12-24T09:48:58;23.37;;;5.70;;
14316;SDS011;7242;50.858;6.586;2022-12-24T09:52:09;23.93;;;5.57;;
14316;SDS011;7242;50.858;6.586;2022-12-24T09:58:55;22.80;;;6.17;;
14316;SDS011;7242;50.858;6.586;2022-12-24T10:01:59;19.07;;;4.73;;
14316;SDS011;7242;50.858;6.586;2022-12-24T10:04:59;26.10;;;5.00;;
14316;SDS011;7242;50.858;6.586;2022-12-24T10:08:07;19.77;;;4.93;;
14316;SDS011;7242;50.858;6.586;2022-12-24T10:27:57;25.47;;;5.40;;
14316;SDS011;7242;50.858;6.586;2022-12-24T10:31:02;22.97;;;5.33;;
14316;SDS011;7242;50.858;6.586;2022-12-24T10:34:05;20.33;;;5.73;;
14316;SDS011;7242;50.858;6.586;2022-12-24T10:37:15;21.87;;;5.03;;
14316;SDS011;7242;50.858;6.586;2022-12-24T10:40:30;19.70;;;5.10;;
14316;SDS011;7242;50.858;6.586;2022-12-24T10:43:37;23.40;;;4.53;;
14316;SDS011;7242;50.858;6.586;2022-12-24T10:46:39;17.83;;;4.30;;
14316;SDS011;7242;50.858;6.586;2022-12-24T10:49:45;16.50;;;4.87;;
14316;SDS011;7242;50.858;6.586;2022-12-24T10:52:47;26.67;;;5.33;;
14316;SDS011;7242;50.858;6.586;2022-12-24T10:55:59;24.97;;;5.13;;
14316;SDS011;7242;50.858;6.586;2022-12-24T10:59:02;16.83;;;4.70;;
14316;SDS011;7242;50.858;6.586;2022-12-24T11:02:09;22.87;;;4.57;;
14316;SDS011;7242;50.858;6.586;2022-12-24T11:05:29;18.37;;;4.97;;
14316;SDS011;7242;50.858;6.586;2022-12-24T11:08:33;16.77;;;4.47;;
14316;SDS011;7242;50.858;6.586;2022-12-24T11:11:36;24.13;;;5.00;;
14316;SDS011;7242;50.858;6.586;2022-12-24T11:14:37;23.73;;;5.03;;
14316;SDS011;7242;50.858;6.586;2022-12-24T11:17:39;21.07;;;4.53;;
14316;SDS011;7242;50.858;6.586;2022-12-24T11:20:40;19.27;;;4.37;;
14316;SDS011;7242;50.858;6.586;2022-12-24T11:30:29;26.40;;;5.03;;
14316;SDS011;7242;50.858;6.586;2022-12-24T11:33:31;23.43;;;5.00;;
14316;SDS011;7242;50.858;6.586;2022-12-24T11:36:45;22.23;;;5.37;;
14316;SDS011;7242;50.858;6.586;2022-12-24T11:39:50;21.77;;;5.07;;
14316;SDS011;7242;50.858;6.586;2022-12-24T11:42:53;18.30;;;4.57;;
14316;SDS011;7242;50.858;6.586;2022-12-24T11:45:59;18.97;;;4.60;;
14316;SDS011;7242;50.858;6.586;2022-12-24T11:52:15;19.07;;;5.00;;
14316;SDS011;7242;50.858;6.586;2022-12-24T11:55:20;19.30;;;4.83;;
14316;SDS011;7242;50.858;6.586;2022-12-24T11:58:40;21.20;;;5.40;;
14316;SDS011;7242;50.858;6.586;2022-12-24T12:01:59;23.67;;;5.07;;
14316;SDS011;7242;50.858;6.586;2022-12-24T12:05:04;24.00;;;5.00;;
14316;SDS011;7242;50.858;6.586;2022-12-24T12:08:09;24.13;;;5.60;;
14316;SDS011;7242;50.858;6.586;2022-12-24T12:11:16;23.97;;;5.47;;
14316;SDS011;7242;50.858;6.586;2022-12-24T12:14:23;22.93;;;5.07;;
14316;SDS011;7242;50.858;6.586;2022-12-24T12:17:35;22.23;;;4.93;;
14316;SDS011;7242;50.858;6.586;2022-12-24T12:20:44;13.37;;;4.30;;
14316;SDS011;7242;50.858;6.586;2022-12-24T12:24:02;19.33;;;5.40;;
14316;SDS011;7242;50.858;6.586;2022-12-24T12:27:10;21.67;;;5.67;;
14316;SDS011;7242;50.858;6.586;2022-12-24T12:30:22;22.97;;;4.80;;
14316;SDS011;7242;50.858;6.586;2022-12-24T12:33:30;27.40;;;6.63;;
14316;SDS011;7242;50.858;6.586;2022-12-24T12:36:33;20.93;;;5.57;;
14316;SDS011;7242;50.858;6.586;2022-12-24T12:39:40;18.43;;;5.20;;
14316;SDS011;7242;50.858;6.586;2022-12-24T12:46:20;21.93;;;5.23;;
14316;SDS011;7242;50.858;6.586;2022-12-24T12:52:41;17.90;;;4.40;;
14316;SDS011;7242;50.858;6.586;2022-12-24T13:02:00;22.60;;;5.13;;
14316;SDS011;7242;50.858;6.586;2022-12-24T13:11:51;23.37;;;4.80;;
14316;SDS011;7242;50.858;6.586;2022-12-24T13:15:32;16.37;;;4.03;;
14316;SDS011;7242;50.858;6.586;2022-12-24T13:18:56;16.57;;;4.57;;
14316;SDS011;7242;50.858;6.586;2022-12-24T13:22:23;16.17;;;4.03;;
14316;SDS011;7242;50.858;6.586;2022-12-24T13:28:35;18.43;;;4.03;;
14316;SDS011;7242;50.858;6.586;2022-12-24T13:31:37;20.03;;;4.67;;
14316;SDS011;7242;50.858;6.586;2022-12-24T13:34:38;19.83;;;4.37;;
14316;SDS011;7242;50.858;6.586;2022-12-24T13:37:40;18.97;;;4.47;;
14316;SDS011;7242;50.858;6.586;2022-12-24T13:40:41;14.00;;;4.00;;
14316;SDS011;7242;50.858;6.586;2022-12-24T13:47:19;20.20;;;5.00;;
14316;SDS011;7242;50.858;6.586;2022-12-24T13:53:43;20.97;;;4.90;;
14316;SDS011;7242;50.858;6.586;2022-12-24T13:56:47;16.33;;;4.10;;
14316;SDS011;7242;50.858;6.586;2022-12-24T13:59:52;18.53;;;4.57;;
14316;SDS011;7242;50.858;6.586;2022-12-24T14:06:11;19.33;;;4.63;;
14316;SDS011;7242;50.858;6.586;2022-12-24T14:09:21;21.80;;;4.50;;
14316;SDS011;7242;50.858;6.586;2022-12-24T14:12:32;16.37;;;4.30;;
14316;SDS011;7242;50.858;6.586;2022-12-24T14:25:22;15.47;;;4.90;;
14316;SDS011;7242;50.858;6.586;2022-12-24T14:28:26;15.23;;;4.67;;
14316;SDS011;7242;50.858;6.586;2022-12-24T14:31:48;20.43;;;5.73;;
14316;SDS011;7242;50.858;6.586;2022-12-24T14:38:15;26.33;;;14.90;;
14316;SDS011;7242;50.858;6.586;2022-12-24T14:41:32;23.73;;;14.23;;
14316;SDS011;7242;50.858;6.586;2022-12-24T14:44:40;19.47;;;11.83;;
14316;SDS011;7242;50.858;6.586;2022-12-24T14:54:39;16.20;;;5.70;;
14316;SDS011;7242;50.858;6.586;2022-12-24T14:57:41;12.93;;;5.20;;
14316;SDS011;7242;50.858;6.586;2022-12-24T15:00:42;15.93;;;4.80;;
14316;SDS011;7242;50.858;6.586;2022-12-24T15:03:44;19.67;;;6.10;;
14316;SDS011;7242;50.858;6.586;2022-12-24T15:06:49;19.63;;;6.10;;
14316;SDS011;7242;50.858;6.586;2022-12-24T15:09:52;18.37;;;6.80;;
14316;SDS011;7242;50.858;6.586;2022-12-24T15:12:54;21.13;;;6.30;;
14316;SDS011;7242;50.858;6.586;2022-12-24T15:15:57;19.93;;;6.70;;
14316;SDS011;7242;50.858;6.586;2022-12-24T15:22:27;17.83;;;5.63;;
14316;SDS011;7242;50.858;6.586;2022-12-24T15:25:31;27.10;;;6.57;;
14316;SDS011;7242;50.858;6.586;2022-12-24T15:28:36;16.87;;;6.37;;
14316;SDS011;7242;50.858;6.586;2022-12-24T15:31:38;21.67;;;6.03;;
14316;SDS011;7242;50.858;6.586;2022-12-24T15:34:49;23.67;;;7.37;;
14316;SDS011;7242;50.858;6.586;2022-12-24T15:37:50;19.17;;;6.80;;
14316;SDS011;7242;50.858;6.586;2022-12-24T15:40:52;16.93;;;6.57;;
14316;SDS011;7242;50.858;6.586;2022-12-24T15:43:54;19.63;;;6.23;;
14316;SDS011;7242;50.858;6.586;2022-12-24T15:47:00;22.13;;;6.27;;
14316;SDS011;7242;50.858;6.586;2022-12-24T15:50:18;16.03;;;5.83;;
14316;SDS011;7242;50.858;6.586;2022-12-24T15:53:34;16.37;;;6.00;;
14316;SDS011;7242;50.858;6.586;2022-12-24T15:56:41;20.50;;;5.80;;
14316;SDS011;7242;50.858;6.586;2022-12-24T15:59:43;14.40;;;5.73;;
14316;SDS011;7242;50.858;6.586;2022-12-24T16:02:51;17.47;;;6.13;;
14316;SDS011;7242;50.858;6.586;2022-12-24T16:05:59;21.13;;;6.23;;
14316;SDS011;7242;50.858;6.586;2022-12-24T16:09:00;19.20;;;5.77;;
14316;SDS011;7242;50.858;6.586;2022-12-24T16:12:02;18.17;;;6.10;;
14316;SDS011;7242;50.858;6.586;2022-12-24T16:15:03;15.13;;;5.40;;
14316;SDS011;7242;50.858;6.586;2022-12-24T16:18:05;18.53;;;6.47;;
14316;SDS011;7242;50.858;6.586;2022-12-24T16:21:06;17.50;;;6.40;;
14316;SDS011;7242;50.858;6.586;2022-12-24T16:24:24;18.87;;;6.20;;
14316;SDS011;7242;50.858;6.586;2022-12-24T16:27:29;16.50;;;6.50;;
14316;SDS011;7242;50.858;6.586;2022-12-24T16:30:31;18.40;;;7.43;;
14316;SDS011;7242;50.858;6.586;2022-12-24T16:33:32;20.63;;;6.87;;
14316;SDS011;7242;50.858;6.586;2022-12-24T16:36:33;18.37;;;5.90;;
14316;SDS011;7242;50.858;6.586;2022-12-24T16:39:34;17.97;;;6.37;;
14316;SDS011;7242;50.858;6.586;2022-12-24T16:42:36;24.07;;;6.80;;
14316;SDS011;7242;50.858;6.586;2022-12-24T16:45:59;23.07;;;7.10;;
14316;SDS011;7242;50.858;6.586;2022-12-24T16:49:01;16.47;;;5.90;;
14316;SDS011;7242;50.858;6.586;2022-12-24T16:52:03;18.93;;;6.43;;
14316;SDS011;7242;50.858;6.586;2022-12-24T16:55:04;16.40;;;5.67;;
14316;SDS011;7242;50.858;6.586;2022-12-24T16:58:05;16.03;;;5.53;;
14316;SDS011;7242;50.858;6.586;2022-12-24T17:01:07;14.70;;;5.30;;
14316;SDS011;7242;50.858;6.586;2022-12-24T17:04:09;15.17;;;5.63;;
14316;SDS011;7242;50.858;6.586;2022-12-24T17:07:11;14.27;;;5.10;;
14316;SDS011;7242;50.858;6.586;2022-12-24T17:10:13;14.37;;;5.30;;
14316;SDS011;7242;50.858;6.586;2022-12-24T17:13:14;15.47;;;5.77;;
14316;SDS011;7242;50.858;6.586;2022-12-24T17:16:16;13.53;;;5.07;;
14316;SDS011;7242;50.858;6.586;2022-12-24T17:19:17;18.83;;;6.77;;
14316;SDS011;7242;50.858;6.586;2022-12-24T17:22:18;15.40;;;5.60;;
14316;SDS011;7242;50.858;6.586;2022-12-24T17:25:19;11.97;;;4.83;;
14316;SDS011;7242;50.858;6.586;2022-12-24T17:28:20;13.80;;;4.83;;
14316;SDS011;7242;50.858;6.586;2022-12-24T17:31:22;13.27;;;4.53;;
14316;SDS011;7242;50.858;6.586;2022-12-24T17:34:23;14.50;;;5.30;;
14316;SDS011;7242;50.858;6.586;2022-12-24T17:37:25;14.40;;;5.83;;
14316;SDS011;7242;50.858;6.586;2022-12-24T17:40:26;18.77;;;6.97;;
14316;SDS011;7242;50.858;6.586;2022-12-24T17:43:27;18.27;;;6.87;;
14316;SDS011;7242;50.858;6.586;2022-12-24T17:46:29;15.83;;;6.47;;
14316;SDS011;7242;50.858;6.586;2022-12-24T17:49:30;14.27;;;6.20;;
14316;SDS011;7242;50.858;6.586;2022-12-24T17:52:31;13.97;;;6.47;;
14316;SDS011;7242;50.858;6.586;2022-12-24T17:55:37;15.03;;;6.47;;
14316;SDS011;7242;50.858;6.586;2022-12-24T17:58:39;13.93;;;6.97;;
14316;SDS011;7242;50.858;6.586;2022-12-24T18:01:41;16.27;;;7.50;;
14316;SDS011;7242;50.858;6.586;2022-12-24T18:04:42;13.33;;;6.70;;
14316;SDS011;7242;50.858;6.586;2022-12-24T18:07:43;15.53;;;6.87;;
14316;SDS011;7242;50.858;6.586;2022-12-24T18:10:44;16.00;;;7.20;;
14316;SDS011;7242;50.858;6.586;2022-12-24T18:13:46;20.83;;;8.57;;
14316;SDS011;7242;50.858;6.586;2022-12-24T18:16:48;21.60;;;9.07;;
14316;SDS011;7242;50.858;6.586;2022-12-24T18:19:49;18.47;;;7.67;;
14316;SDS011;7242;50.858;6.586;2022-12-24T18:22:50;18.97;;;6.87;;
14316;SDS011;7242;50.858;6.586;2022-12-24T18:25:52;16.93;;;6.43;;
14316;SDS011;7242;50.858;6.586;2022-12-24T18:28:53;14.50;;;6.30;;
14316;SDS011;7242;50.858;6.586;2022-12-24T18:31:56;16.73;;;9.43;;
14316;SDS011;7242;50.858;6.586;2022-12-24T18:34:57;23.77;;;10.50;;
14316;SDS011;7242;50.858;6.586;2022-12-24T18:37:58;18.67;;;9.43;;
14316;SDS011;7242;50.858;6.586;2022-12-24T18:41:06;21.93;;;12.53;;
14316;SDS011;7242;50.858;6.586;2022-12-24T18:44:09;22.80;;;11.67;;
14316;SDS011;7242;50.858;6.586;2022-12-24T18:47:11;21.97;;;10.30;;
14316;SDS011;7242;50.858;6.586;2022-12-24T18:50:12;14.03;;;6.93;;
14316;SDS011;7242;50.858;6.586;2022-12-24T18:53:13;15.53;;;5.27;;
14316;SDS011;7242;50.858;6.586;2022-12-24T18:56:16;16.47;;;5.20;;
14316;SDS011;7242;50.858;6.586;2022-12-24T18:59:18;16.47;;;4.93;;
14316;SDS011;7242;50.858;6.586;2022-12-24T19:02:19;14.83;;;4.93;;
14316;SDS011;7242;50.858;6.586;2022-12-24T19:05:21;17.47;;;4.73;;
14316;SDS011;7242;50.858;6.586;2022-12-24T19:08:22;15.73;;;4.70;;
14316;SDS011;7242;50.858;6.586;2022-12-24T19:11:23;12.40;;;4.90;;
14316;SDS011;7242;50.858;6.586;2022-12-24T19:14:25;12.20;;;4.47;;
14316;SDS011;7242;50.858;6.586;2022-12-24T19:17:26;14.57;;;4.93;;
14316;SDS011;7242;50.858;6.586;2022-12-24T19:20:27;16.97;;;5.50;;
14316;SDS011;7242;50.858;6.586;2022-12-24T19:23:29;11.43;;;4.47;;
14316;SDS011;7242;50.858;6.586;2022-12-24T19:26:30;13.60;;;4.77;;
14316;SDS011;7242;50.858;6.586;2022-12-24T19:29:31;12.17;;;4.63;;
14316;SDS011;7242;50.858;6.586;2022-12-24T19:32:32;13.83;;;4.73;;
14316;SDS011;7242;50.858;6.586;2022-12-24T19:35:33;12.97;;;4.53;;
14316;SDS011;7242;50.858;6.586;2022-12-24T19:38:35;13.00;;;5.47;;
14316;SDS011;7242;50.858;6.586;2022-12-24T19:41:36;11.07;;;4.43;;
14316;SDS011;7242;50.858;6.586;2022-12-24T19:44:37;12.27;;;5.00;;
14316;SDS011;7242;50.858;6.586;2022-12-24T19:47:39;11.40;;;4.83;;
14316;SDS011;7242;50.858;6.586;2022-12-24T19:50:40;14.57;;;5.37;;
14316;SDS011;7242;50.858;6.586;2022-12-24T19:53:41;12.73;;;5.33;;
14316;SDS011;7242;50.858;6.586;2022-12-24T19:56:42;13.27;;;5.53;;
14316;SDS011;7242;50.858;6.586;2022-12-24T19:59:44;15.67;;;5.93;;
14316;SDS011;7242;50.858;6.586;2022-12-24T20:02:45;19.57;;;5.70;;
14316;SDS011;7242;50.858;6.586;2022-12-24T20:05:46;16.43;;;4.80;;
14316;SDS011;7242;50.858;6.586;2022-12-24T20:08:47;13.03;;;4.83;;
14316;SDS011;7242;50.858;6.586;2022-12-24T20:11:49;12.17;;;4.70;;
14316;SDS011;7242;50.858;6.586;2022-12-24T20:14:53;13.27;;;4.60;;